sensor_id;sensor_type;location;lat;lon;timestamp;temperature;humidity
53422;DHT22;39319;52.944;5.928;2023-07-20T00:00:06;18.30;99.20
53422;DHT22;39319;52.944;5.928;2023-07-20T00:02:32;18.30;99.00
53422;DHT22;39319;52.944;5.928;2023-07-20T00:04:58;18.30;99.20
53422;DHT22;39319;52.944;5.928;2023-07-20T00:07:25;18.60;99.40
53422;DHT22;39319;52.944;5.928;2023-07-20T00:09:50;18.20;99.10
53422;DHT22;39319;52.944;5.928;2023-07-20T00:12:16;18.20;99.10
53422;DHT22;39319;52.944;5.928;2023-07-20T00:14:42;18.10;99.20
53422;DHT22;39319;52.944;5.928;2023-07-20T00:17:07;18.10;98.90
53422;DHT22;39319;52.944;5.928;2023-07-20T00:19:33;18.00;98.80
53422;DHT22;39319;52.944;5.928;2023-07-20T00:22:00;18.00;99.00
53422;DHT22;39319;52.944;5.928;2023-07-20T00:24:27;17.90;98.90
53422;DHT22;39319;52.944;5.928;2023-07-20T00:26:52;17.90;99.00
53422;DHT22;39319;52.944;5.928;2023-07-20T00:29:18;17.80;98.90
53422;DHT22;39319;52.944;5.928;2023-07-20T00:31:44;17.70;99.00
53422;DHT22;39319;52.944;5.928;2023-07-20T00:34:10;17.70;99.00
53422;DHT22;39319;52.944;5.928;2023-07-20T00:36:35;17.60;99.00
53422;DHT22;39319;52.944;5.928;2023-07-20T00:39:01;17.60;98.90
53422;DHT22;39319;52.944;5.928;2023-07-20T00:41:27;17.50;98.90
53422;DHT22;39319;52.944;5.928;2023-07-20T00:43:55;17.60;99.00
53422;DHT22;39319;52.944;5.928;2023-07-20T00:46:23;17.40;98.80
53422;DHT22;39319;52.944;5.928;2023-07-20T00:48:50;17.40;98.80
53422;DHT22;39319;52.944;5.928;2023-07-20T00:51:16;17.40;98.80
53422;DHT22;39319;52.944;5.928;2023-07-20T00:53:42;17.20;98.90
53422;DHT22;39319;52.944;5.928;2023-07-20T00:56:08;17.30;99.00
53422;DHT22;39319;52.944;5.928;2023-07-20T00:58:35;17.30;99.00
53422;DHT22;39319;52.944;5.928;2023-07-20T01:01:01;17.20;99.00
53422;DHT22;39319;52.944;5.928;2023-07-20T01:03:27;17.20;99.00
53422;DHT22;39319;52.944;5.928;2023-07-20T01:08:35;17.00;98.80
53422;DHT22;39319;52.944;5.928;2023-07-20T01:13:56;17.00;98.60
53422;DHT22;39319;52.944;5.928;2023-07-20T01:16:22;16.90;98.70
53422;DHT22;39319;52.944;5.928;2023-07-20T01:18:48;16.90;98.60
53422;DHT22;39319;52.944;5.928;2023-07-20T01:21:30;16.90;98.80
53422;DHT22;39319;52.944;5.928;2023-07-20T01:27:25;16.80;98.60
53422;DHT22;39319;52.944;5.928;2023-07-20T01:32:29;16.70;98.80
53422;DHT22;39319;52.944;5.928;2023-07-20T01:34:56;16.70;98.80
53422;DHT22;39319;52.944;5.928;2023-07-20T01:37:24;16.70;98.80
53422;DHT22;39319;52.944;5.928;2023-07-20T01:39:54;16.60;98.70
53422;DHT22;39319;52.944;5.928;2023-07-20T01:42:23;16.50;98.60
53422;DHT22;39319;52.944;5.928;2023-07-20T01:44:52;16.60;98.60
53422;DHT22;39319;52.944;5.928;2023-07-20T01:47:19;16.50;98.60
53422;DHT22;39319;52.944;5.928;2023-07-20T01:49:45;16.50;98.60
53422;DHT22;39319;52.944;5.928;2023-07-20T01:52:11;16.50;98.60
53422;DHT22;39319;52.944;5.928;2023-07-20T01:54:36;16.50;98.70
53422;DHT22;39319;52.944;5.928;2023-07-20T01:57:02;16.40;98.60
53422;DHT22;39319;52.944;5.928;2023-07-20T01:59:30;16.40;98.60
53422;DHT22;39319;52.944;5.928;2023-07-20T02:01:56;16.30;98.60
53422;DHT22;39319;52.944;5.928;2023-07-20T02:04:22;16.30;98.50
53422;DHT22;39319;52.944;5.928;2023-07-20T02:06:47;16.30;98.60
53422;DHT22;39319;52.944;5.928;2023-07-20T02:09:13;16.30;98.60
53422;DHT22;39319;52.944;5.928;2023-07-20T02:11:39;16.20;98.50
53422;DHT22;39319;52.944;5.928;2023-07-20T02:14:04;16.20;98.50
53422;DHT22;39319;52.944;5.928;2023-07-20T02:16:30;16.20;98.60
53422;DHT22;39319;52.944;5.928;2023-07-20T02:18:56;16.20;98.60
53422;DHT22;39319;52.944;5.928;2023-07-20T02:21:22;16.20;98.50
53422;DHT22;39319;52.944;5.928;2023-07-20T02:23:48;16.10;98.50
53422;DHT22;39319;52.944;5.928;2023-07-20T02:26:14;16.10;98.50
53422;DHT22;39319;52.944;5.928;2023-07-20T02:28:40;16.00;98.50
53422;DHT22;39319;52.944;5.928;2023-07-20T02:31:07;16.00;98.40
53422;DHT22;39319;52.944;5.928;2023-07-20T02:33:32;16.00;98.40
53422;DHT22;39319;52.944;5.928;2023-07-20T02:35:58;15.90;98.40
53422;DHT22;39319;52.944;5.928;2023-07-20T02:38:24;15.90;98.40
53422;DHT22;39319;52.944;5.928;2023-07-20T02:40:50;15.80;98.50
53422;DHT22;39319;52.944;5.928;2023-07-20T02:43:16;15.80;98.30
53422;DHT22;39319;52.944;5.928;2023-07-20T02:45:41;15.80;98.30
53422;DHT22;39319;52.944;5.928;2023-07-20T02:48:08;15.70;98.40
53422;DHT22;39319;52.944;5.928;2023-07-20T02:50:34;15.70;98.40
53422;DHT22;39319;52.944;5.928;2023-07-20T02:53:01;15.70;98.40
53422;DHT22;39319;52.944;5.928;2023-07-20T02:55:27;15.70;98.30
53422;DHT22;39319;52.944;5.928;2023-07-20T02:57:52;15.70;98.20
53422;DHT22;39319;52.944;5.928;2023-07-20T03:00:18;15.60;98.30
53422;DHT22;39319;52.944;5.928;2023-07-20T03:02:45;15.50;98.50
53422;DHT22;39319;52.944;5.928;2023-07-20T03:05:14;15.60;98.40
53422;DHT22;39319;52.944;5.928;2023-07-20T03:07:43;15.50;98.40
53422;DHT22;39319;52.944;5.928;2023-07-20T03:10:09;15.50;98.40
53422;DHT22;39319;52.944;5.928;2023-07-20T03:12:35;15.50;98.50
53422;DHT22;39319;52.944;5.928;2023-07-20T03:15:02;15.40;98.70
53422;DHT22;39319;52.944;5.928;2023-07-20T03:17:28;15.40;98.50
53422;DHT22;39319;52.944;5.928;2023-07-20T03:19:54;15.40;98.50
53422;DHT22;39319;52.944;5.928;2023-07-20T03:22:19;15.40;98.50
53422;DHT22;39319;52.944;5.928;2023-07-20T03:24:47;15.40;98.40
53422;DHT22;39319;52.944;5.928;2023-07-20T03:27:13;15.30;98.50
53422;DHT22;39319;52.944;5.928;2023-07-20T03:29:38;15.30;98.50
53422;DHT22;39319;52.944;5.928;2023-07-20T03:32:04;15.30;98.50
53422;DHT22;39319;52.944;5.928;2023-07-20T03:34:30;15.30;98.40
53422;DHT22;39319;52.944;5.928;2023-07-20T03:36:56;15.30;98.50
53422;DHT22;39319;52.944;5.928;2023-07-20T03:39:22;15.30;98.60
53422;DHT22;39319;52.944;5.928;2023-07-20T03:41:48;15.20;98.50
53422;DHT22;39319;52.944;5.928;2023-07-20T03:44:14;15.30;98.60
53422;DHT22;39319;52.944;5.928;2023-07-20T03:46:40;15.20;98.50
53422;DHT22;39319;52.944;5.928;2023-07-20T03:49:05;15.30;98.40
53422;DHT22;39319;52.944;5.928;2023-07-20T03:51:32;15.20;98.50
53422;DHT22;39319;52.944;5.928;2023-07-20T03:53:58;15.20;98.50
53422;DHT22;39319;52.944;5.928;2023-07-20T03:56:23;15.10;98.50
53422;DHT22;39319;52.944;5.928;2023-07-20T03:58:50;15.10;98.60
53422;DHT22;39319;52.944;5.928;2023-07-20T04:01:15;15.10;98.70
53422;DHT22;39319;52.944;5.928;2023-07-20T04:03:42;15.30;98.70
53422;DHT22;39319;52.944;5.928;2023-07-20T04:06:08;15.10;98.70
53422;DHT22;39319;52.944;5.928;2023-07-20T04:08:35;15.10;98.60
53422;DHT22;39319;52.944;5.928;2023-07-20T04:11:02;15.00;98.80
53422;DHT22;39319;52.944;5.928;2023-07-20T04:13:27;15.00;98.60
53422;DHT22;39319;52.944;5.928;2023-07-20T04:15:53;15.10;98.70
53422;DHT22;39319;52.944;5.928;2023-07-20T04:18:19;15.10;98.60
53422;DHT22;39319;52.944;5.928;2023-07-20T04:20:45;15.00;98.80
53422;DHT22;39319;52.944;5.928;2023-07-20T04:23:11;15.10;98.80
53422;DHT22;39319;52.944;5.928;2023-07-20T04:25:39;15.10;98.90
53422;DHT22;39319;52.944;5.928;2023-07-20T04:28:06;15.10;98.90
53422;DHT22;39319;52.944;5.928;2023-07-20T04:30:38;15.00;98.90
53422;DHT22;39319;52.944;5.928;2023-07-20T04:33:05;15.10;98.90
53422;DHT22;39319;52.944;5.928;2023-07-20T04:35:51;15.00;99.00
53422;DHT22;39319;52.944;5.928;2023-07-20T04:38:18;15.10;99.10
53422;DHT22;39319;52.944;5.928;2023-07-20T04:40:48;15.10;99.10
53422;DHT22;39319;52.944;5.928;2023-07-20T04:43:14;15.10;99.20
53422;DHT22;39319;52.944;5.928;2023-07-20T04:45:40;15.20;99.30
53422;DHT22;39319;52.944;5.928;2023-07-20T04:48:10;15.20;99.30
53422;DHT22;39319;52.944;5.928;2023-07-20T04:50:40;15.30;99.30
53422;DHT22;39319;52.944;5.928;2023-07-20T04:53:06;15.30;99.40
53422;DHT22;39319;52.944;5.928;2023-07-20T04:55:32;15.30;99.70
53422;DHT22;39319;52.944;5.928;2023-07-20T04:58:00;15.40;99.90
53422;DHT22;39319;52.944;5.928;2023-07-20T05:00:28;15.50;99.90
53422;DHT22;39319;52.944;5.928;2023-07-20T05:02:54;15.60;99.90
53422;DHT22;39319;52.944;5.928;2023-07-20T05:05:20;15.70;99.90
53422;DHT22;39319;52.944;5.928;2023-07-20T05:07:46;15.80;99.90
53422;DHT22;39319;52.944;5.928;2023-07-20T05:10:11;15.90;99.90
53422;DHT22;39319;52.944;5.928;2023-07-20T05:12:37;16.00;99.90
53422;DHT22;39319;52.944;5.928;2023-07-20T05:15:03;16.00;99.90
53422;DHT22;39319;52.944;5.928;2023-07-20T05:17:29;16.10;99.90
53422;DHT22;39319;52.944;5.928;2023-07-20T05:19:55;16.10;99.90
53422;DHT22;39319;52.944;5.928;2023-07-20T05:22:21;16.20;99.90
53422;DHT22;39319;52.944;5.928;2023-07-20T05:24:47;16.30;99.90
53422;DHT22;39319;52.944;5.928;2023-07-20T05:27:12;16.30;99.90
53422;DHT22;39319;52.944;5.928;2023-07-20T05:29:42;16.30;99.90
53422;DHT22;39319;52.944;5.928;2023-07-20T05:32:08;16.30;99.90
53422;DHT22;39319;52.944;5.928;2023-07-20T05:34:35;16.30;99.90
53422;DHT22;39319;52.944;5.928;2023-07-20T05:37:01;16.40;99.90
53422;DHT22;39319;52.944;5.928;2023-07-20T05:39:26;16.40;99.90
53422;DHT22;39319;52.944;5.928;2023-07-20T05:41:52;16.40;99.70
53422;DHT22;39319;52.944;5.928;2023-07-20T05:44:18;16.50;99.40
53422;DHT22;39319;52.944;5.928;2023-07-20T05:46:44;16.70;99.50
53422;DHT22;39319;52.944;5.928;2023-07-20T05:49:09;16.50;99.50
53422;DHT22;39319;52.944;5.928;2023-07-20T05:51:35;16.60;99.70
53422;DHT22;39319;52.944;5.928;2023-07-20T05:54:01;16.70;99.70
53422;DHT22;39319;52.944;5.928;2023-07-20T05:56:27;16.70;99.50
53422;DHT22;39319;52.944;5.928;2023-07-20T05:58:53;16.80;99.50
53422;DHT22;39319;52.944;5.928;2023-07-20T06:01:21;16.80;99.40
53422;DHT22;39319;52.944;5.928;2023-07-20T06:03:46;16.80;99.40
53422;DHT22;39319;52.944;5.928;2023-07-20T06:06:12;16.90;99.40
53422;DHT22;39319;52.944;5.928;2023-07-20T06:08:38;16.90;99.40
53422;DHT22;39319;52.944;5.928;2023-07-20T06:11:04;17.00;99.00
53422;DHT22;39319;52.944;5.928;2023-07-20T06:13:30;17.10;98.90
53422;DHT22;39319;52.944;5.928;2023-07-20T06:15:56;17.20;98.70
53422;DHT22;39319;52.944;5.928;2023-07-20T06:18:25;17.30;98.50
53422;DHT22;39319;52.944;5.928;2023-07-20T06:20:51;17.30;98.50
53422;DHT22;39319;52.944;5.928;2023-07-20T06:23:18;17.40;98.40
53422;DHT22;39319;52.944;5.928;2023-07-20T06:25:44;17.40;98.40
53422;DHT22;39319;52.944;5.928;2023-07-20T06:28:10;17.50;98.50
53422;DHT22;39319;52.944;5.928;2023-07-20T06:30:36;17.60;98.40
53422;DHT22;39319;52.944;5.928;2023-07-20T06:33:01;17.60;98.20
53422;DHT22;39319;52.944;5.928;2023-07-20T06:35:27;17.80;98.50
53422;DHT22;39319;52.944;5.928;2023-07-20T06:37:53;17.90;98.40
53422;DHT22;39319;52.944;5.928;2023-07-20T06:40:19;17.90;98.40
53422;DHT22;39319;52.944;5.928;2023-07-20T06:42:45;18.00;98.10
53422;DHT22;39319;52.944;5.928;2023-07-20T06:45:11;18.10;97.90
53422;DHT22;39319;52.944;5.928;2023-07-20T06:47:40;18.10;97.40
53422;DHT22;39319;52.944;5.928;2023-07-20T06:50:09;18.30;97.80
53422;DHT22;39319;52.944;5.928;2023-07-20T06:52:36;18.30;97.30
53422;DHT22;39319;52.944;5.928;2023-07-20T06:55:02;18.40;97.00
53422;DHT22;39319;52.944;5.928;2023-07-20T06:57:28;18.40;96.90
53422;DHT22;39319;52.944;5.928;2023-07-20T06:59:56;18.40;96.80
53422;DHT22;39319;52.944;5.928;2023-07-20T07:02:22;18.50;96.80
53422;DHT22;39319;52.944;5.928;2023-07-20T07:04:47;18.40;96.90
53422;DHT22;39319;52.944;5.928;2023-07-20T07:07:16;18.50;97.10
53422;DHT22;39319;52.944;5.928;2023-07-20T07:09:42;18.50;96.20
53422;DHT22;39319;52.944;5.928;2023-07-20T07:12:08;18.60;96.20
53422;DHT22;39319;52.944;5.928;2023-07-20T07:14:34;18.70;96.10
53422;DHT22;39319;52.944;5.928;2023-07-20T07:17:00;18.80;95.50
53422;DHT22;39319;52.944;5.928;2023-07-20T07:19:26;18.70;95.50
53422;DHT22;39319;52.944;5.928;2023-07-20T07:21:52;18.80;95.20
53422;DHT22;39319;52.944;5.928;2023-07-20T07:24:17;18.90;94.90
53422;DHT22;39319;52.944;5.928;2023-07-20T07:26:43;18.90;94.40
53422;DHT22;39319;52.944;5.928;2023-07-20T07:29:09;18.90;94.50
53422;DHT22;39319;52.944;5.928;2023-07-20T07:31:35;19.00;94.30
53422;DHT22;39319;52.944;5.928;2023-07-20T07:34:04;19.10;94.40
53422;DHT22;39319;52.944;5.928;2023-07-20T07:36:31;19.10;94.20
53422;DHT22;39319;52.944;5.928;2023-07-20T07:38:57;19.10;94.00
53422;DHT22;39319;52.944;5.928;2023-07-20T07:41:25;19.20;93.60
53422;DHT22;39319;52.944;5.928;2023-07-20T07:43:51;19.20;93.20
53422;DHT22;39319;52.944;5.928;2023-07-20T07:46:16;19.10;93.70
53422;DHT22;39319;52.944;5.928;2023-07-20T07:48:44;19.10;94.00
53422;DHT22;39319;52.944;5.928;2023-07-20T07:51:10;19.20;93.80
53422;DHT22;39319;52.944;5.928;2023-07-20T07:53:36;19.10;93.50
53422;DHT22;39319;52.944;5.928;2023-07-20T07:56:02;19.20;93.80
53422;DHT22;39319;52.944;5.928;2023-07-20T07:58:29;19.30;93.40
53422;DHT22;39319;52.944;5.928;2023-07-20T08:00:54;19.30;92.70
53422;DHT22;39319;52.944;5.928;2023-07-20T08:03:20;19.40;92.40
53422;DHT22;39319;52.944;5.928;2023-07-20T08:05:47;19.40;92.30
53422;DHT22;39319;52.944;5.928;2023-07-20T08:08:15;19.50;92.00
53422;DHT22;39319;52.944;5.928;2023-07-20T08:10:40;19.60;92.10
53422;DHT22;39319;52.944;5.928;2023-07-20T08:13:06;19.70;92.30
53422;DHT22;39319;52.944;5.928;2023-07-20T08:15:32;19.80;91.50
53422;DHT22;39319;52.944;5.928;2023-07-20T08:17:57;19.90;91.80
53422;DHT22;39319;52.944;5.928;2023-07-20T08:20:23;20.10;91.30
53422;DHT22;39319;52.944;5.928;2023-07-20T08:22:55;20.20;91.60
53422;DHT22;39319;52.944;5.928;2023-07-20T08:25:21;20.20;90.80
53422;DHT22;39319;52.944;5.928;2023-07-20T08:27:47;20.30;90.60
53422;DHT22;39319;52.944;5.928;2023-07-20T08:30:13;20.40;91.20
53422;DHT22;39319;52.944;5.928;2023-07-20T08:32:39;20.60;90.40
53422;DHT22;39319;52.944;5.928;2023-07-20T08:35:05;20.70;89.30
53422;DHT22;39319;52.944;5.928;2023-07-20T08:37:31;20.70;87.70
53422;DHT22;39319;52.944;5.928;2023-07-20T08:39:57;20.80;85.80
53422;DHT22;39319;52.944;5.928;2023-07-20T08:42:23;20.70;85.90
53422;DHT22;39319;52.944;5.928;2023-07-20T08:44:49;20.80;85.30
53422;DHT22;39319;52.944;5.928;2023-07-20T08:47:18;20.80;85.60
53422;DHT22;39319;52.944;5.928;2023-07-20T08:49:48;20.80;85.90
53422;DHT22;39319;52.944;5.928;2023-07-20T08:52:14;20.80;85.20
53422;DHT22;39319;52.944;5.928;2023-07-20T08:54:42;21.00;85.00
53422;DHT22;39319;52.944;5.928;2023-07-20T08:57:08;21.00;83.80
53422;DHT22;39319;52.944;5.928;2023-07-20T08:59:38;21.10;84.10
53422;DHT22;39319;52.944;5.928;2023-07-20T09:02:05;21.20;84.00
53422;DHT22;39319;52.944;5.928;2023-07-20T09:04:32;21.20;85.10
53422;DHT22;39319;52.944;5.928;2023-07-20T09:06:58;21.30;85.40
53422;DHT22;39319;52.944;5.928;2023-07-20T09:09:24;21.30;84.50
53422;DHT22;39319;52.944;5.928;2023-07-20T09:11:50;21.10;83.90
53422;DHT22;39319;52.944;5.928;2023-07-20T09:14:16;21.00;84.20
53422;DHT22;39319;52.944;5.928;2023-07-20T09:16:49;21.00;84.10
53422;DHT22;39319;52.944;5.928;2023-07-20T09:19:16;21.00;84.90
53422;DHT22;39319;52.944;5.928;2023-07-20T09:21:49;21.20;84.60
53422;DHT22;39319;52.944;5.928;2023-07-20T09:24:19;21.30;84.20
53422;DHT22;39319;52.944;5.928;2023-07-20T09:26:48;21.50;82.00
53422;DHT22;39319;52.944;5.928;2023-07-20T09:29:17;21.70;81.40
53422;DHT22;39319;52.944;5.928;2023-07-20T09:32:01;21.90;80.30
53422;DHT22;39319;52.944;5.928;2023-07-20T09:34:31;22.10;82.00
53422;DHT22;39319;52.944;5.928;2023-07-20T09:36:58;22.30;78.50
53422;DHT22;39319;52.944;5.928;2023-07-20T09:39:24;22.40;79.50
53422;DHT22;39319;52.944;5.928;2023-07-20T09:41:51;22.50;79.10
53422;DHT22;39319;52.944;5.928;2023-07-20T09:44:17;22.80;80.10
53422;DHT22;39319;52.944;5.928;2023-07-20T09:46:47;22.90;77.40
53422;DHT22;39319;52.944;5.928;2023-07-20T09:49:14;23.00;78.00
53422;DHT22;39319;52.944;5.928;2023-07-20T09:51:42;23.00;78.00
53422;DHT22;39319;52.944;5.928;2023-07-20T09:54:10;23.20;78.30
53422;DHT22;39319;52.944;5.928;2023-07-20T09:56:38;23.30;77.60
53422;DHT22;39319;52.944;5.928;2023-07-20T09:59:05;23.30;76.00
53422;DHT22;39319;52.944;5.928;2023-07-20T10:01:32;23.30;77.30
53422;DHT22;39319;52.944;5.928;2023-07-20T10:04:03;23.40;78.30
53422;DHT22;39319;52.944;5.928;2023-07-20T10:06:32;23.60;78.10
53422;DHT22;39319;52.944;5.928;2023-07-20T10:09:02;23.70;77.10
53422;DHT22;39319;52.944;5.928;2023-07-20T10:11:35;23.80;76.70
53422;DHT22;39319;52.944;5.928;2023-07-20T10:14:03;24.00;74.30
53422;DHT22;39319;52.944;5.928;2023-07-20T10:16:34;24.20;74.30
53422;DHT22;39319;52.944;5.928;2023-07-20T10:21:29;24.30;74.80
53422;DHT22;39319;52.944;5.928;2023-07-20T10:23:56;24.40;73.40
53422;DHT22;39319;52.944;5.928;2023-07-20T10:26:22;24.40;74.00
53422;DHT22;39319;52.944;5.928;2023-07-20T10:28:48;24.50;74.20
53422;DHT22;39319;52.944;5.928;2023-07-20T10:31:15;24.50;72.90
53422;DHT22;39319;52.944;5.928;2023-07-20T10:33:41;24.60;72.80
53422;DHT22;39319;52.944;5.928;2023-07-20T10:36:07;24.60;71.60
53422;DHT22;39319;52.944;5.928;2023-07-20T10:41:20;24.80;70.90
53422;DHT22;39319;52.944;5.928;2023-07-20T10:43:47;24.80;71.70
53422;DHT22;39319;52.944;5.928;2023-07-20T10:46:13;24.70;72.90
53422;DHT22;39319;52.944;5.928;2023-07-20T10:49:07;24.70;72.80
53422;DHT22;39319;52.944;5.928;2023-07-20T10:51:43;24.60;72.20
53422;DHT22;39319;52.944;5.928;2023-07-20T10:57:22;24.80;70.10
53422;DHT22;39319;52.944;5.928;2023-07-20T10:59:48;24.80;72.30
53422;DHT22;39319;52.944;5.928;2023-07-20T11:02:18;25.00;72.30
53422;DHT22;39319;52.944;5.928;2023-07-20T11:04:47;25.10;70.60
53422;DHT22;39319;52.944;5.928;2023-07-20T11:07:36;25.20;70.00
53422;DHT22;39319;52.944;5.928;2023-07-20T11:10:14;25.30;71.70
53422;DHT22;39319;52.944;5.928;2023-07-20T11:13:22;25.40;75.40
53422;DHT22;39319;52.944;5.928;2023-07-20T11:16:02;25.40;75.40
53422;DHT22;39319;52.944;5.928;2023-07-20T11:18:33;25.20;76.00
53422;DHT22;39319;52.944;5.928;2023-07-20T11:20:59;25.10;77.30
53422;DHT22;39319;52.944;5.928;2023-07-20T11:23:25;25.20;76.70
53422;DHT22;39319;52.944;5.928;2023-07-20T11:25:51;25.30;77.20
53422;DHT22;39319;52.944;5.928;2023-07-20T11:28:17;25.30;76.70
53422;DHT22;39319;52.944;5.928;2023-07-20T11:30:43;25.20;73.10
53422;DHT22;39319;52.944;5.928;2023-07-20T11:33:09;25.20;72.70
53422;DHT22;39319;52.944;5.928;2023-07-20T11:35:42;25.20;72.30
53422;DHT22;39319;52.944;5.928;2023-07-20T11:38:11;25.20;71.80
53422;DHT22;39319;52.944;5.928;2023-07-20T11:40:42;25.30;72.80
53422;DHT22;39319;52.944;5.928;2023-07-20T11:43:09;25.30;71.50
53422;DHT22;39319;52.944;5.928;2023-07-20T11:45:35;25.30;71.50
53422;DHT22;39319;52.944;5.928;2023-07-20T11:48:02;25.10;72.10
53422;DHT22;39319;52.944;5.928;2023-07-20T11:50:28;25.00;72.90
53422;DHT22;39319;52.944;5.928;2023-07-20T11:52:54;25.10;71.80
53422;DHT22;39319;52.944;5.928;2023-07-20T11:55:20;25.20;72.60
53422;DHT22;39319;52.944;5.928;2023-07-20T11:58:03;25.30;72.00
53422;DHT22;39319;52.944;5.928;2023-07-20T12:00:29;25.50;72.00
53422;DHT22;39319;52.944;5.928;2023-07-20T12:02:55;25.60;69.00
53422;DHT22;39319;52.944;5.928;2023-07-20T12:05:22;25.50;69.00
53422;DHT22;39319;52.944;5.928;2023-07-20T12:07:49;25.50;70.00
53422;DHT22;39319;52.944;5.928;2023-07-20T12:10:24;25.50;71.20
53422;DHT22;39319;52.944;5.928;2023-07-20T12:12:51;25.50;72.40
53422;DHT22;39319;52.944;5.928;2023-07-20T12:17:48;25.20;69.50
53422;DHT22;39319;52.944;5.928;2023-07-20T12:20:31;25.10;71.20
53422;DHT22;39319;52.944;5.928;2023-07-20T12:23:03;25.10;71.50
53422;DHT22;39319;52.944;5.928;2023-07-20T12:25:46;25.20;72.80
53422;DHT22;39319;52.944;5.928;2023-07-20T12:28:18;25.20;73.10
53422;DHT22;39319;52.944;5.928;2023-07-20T12:30:45;25.10;72.90
53422;DHT22;39319;52.944;5.928;2023-07-20T12:33:12;25.00;71.30
53422;DHT22;39319;52.944;5.928;2023-07-20T12:35:41;25.00;71.10
53422;DHT22;39319;52.944;5.928;2023-07-20T12:38:08;25.00;71.10
53422;DHT22;39319;52.944;5.928;2023-07-20T12:40:34;25.30;71.90
53422;DHT22;39319;52.944;5.928;2023-07-20T12:43:00;25.40;71.30
53422;DHT22;39319;52.944;5.928;2023-07-20T12:45:26;25.50;71.80
53422;DHT22;39319;52.944;5.928;2023-07-20T12:47:52;25.70;71.50
53422;DHT22;39319;52.944;5.928;2023-07-20T12:50:18;25.70;70.70
53422;DHT22;39319;52.944;5.928;2023-07-20T12:52:43;25.80;71.10
53422;DHT22;39319;52.944;5.928;2023-07-20T12:55:10;25.80;71.70
53422;DHT22;39319;52.944;5.928;2023-07-20T12:57:36;25.80;70.50
53422;DHT22;39319;52.944;5.928;2023-07-20T13:00:04;25.70;70.40
53422;DHT22;39319;52.944;5.928;2023-07-20T13:02:32;25.50;70.60
53422;DHT22;39319;52.944;5.928;2023-07-20T13:04:58;25.40;71.40
53422;DHT22;39319;52.944;5.928;2023-07-20T13:07:34;25.40;72.20
53422;DHT22;39319;52.944;5.928;2023-07-20T13:10:00;25.50;71.70
53422;DHT22;39319;52.944;5.928;2023-07-20T13:12:30;25.50;70.50
53422;DHT22;39319;52.944;5.928;2023-07-20T13:14:56;25.50;70.90
53422;DHT22;39319;52.944;5.928;2023-07-20T13:17:25;25.60;71.00
53422;DHT22;39319;52.944;5.928;2023-07-20T13:19:50;25.90;69.90
53422;DHT22;39319;52.944;5.928;2023-07-20T13:22:18;25.90;70.70
53422;DHT22;39319;52.944;5.928;2023-07-20T13:24:45;26.00;70.60
53422;DHT22;39319;52.944;5.928;2023-07-20T13:27:15;26.20;71.50
53422;DHT22;39319;52.944;5.928;2023-07-20T13:29:41;26.30;70.80
53422;DHT22;39319;52.944;5.928;2023-07-20T13:32:07;26.40;69.10
53422;DHT22;39319;52.944;5.928;2023-07-20T13:34:33;26.50;68.90
53422;DHT22;39319;52.944;5.928;2023-07-20T13:37:00;26.50;66.40
53422;DHT22;39319;52.944;5.928;2023-07-20T13:39:26;26.30;67.60
53422;DHT22;39319;52.944;5.928;2023-07-20T13:41:53;26.10;66.30
53422;DHT22;39319;52.944;5.928;2023-07-20T13:44:22;26.00;67.40
53422;DHT22;39319;52.944;5.928;2023-07-20T13:46:48;26.00;68.00
53422;DHT22;39319;52.944;5.928;2023-07-20T13:49:14;26.20;66.70
53422;DHT22;39319;52.944;5.928;2023-07-20T13:51:41;26.20;65.30
53422;DHT22;39319;52.944;5.928;2023-07-20T13:54:07;26.30;66.50
53422;DHT22;39319;52.944;5.928;2023-07-20T13:56:33;26.50;67.50
53422;DHT22;39319;52.944;5.928;2023-07-20T13:58:59;26.60;65.80
53422;DHT22;39319;52.944;5.928;2023-07-20T14:01:24;26.50;66.00
53422;DHT22;39319;52.944;5.928;2023-07-20T14:03:51;26.60;65.10
53422;DHT22;39319;52.944;5.928;2023-07-20T14:06:17;26.70;66.40
53422;DHT22;39319;52.944;5.928;2023-07-20T14:08:43;26.70;66.60
53422;DHT22;39319;52.944;5.928;2023-07-20T14:11:12;26.80;66.70
53422;DHT22;39319;52.944;5.928;2023-07-20T14:13:38;26.90;65.70
53422;DHT22;39319;52.944;5.928;2023-07-20T14:16:04;26.70;65.60
53422;DHT22;39319;52.944;5.928;2023-07-20T14:18:30;26.50;66.10
53422;DHT22;39319;52.944;5.928;2023-07-20T14:20:56;26.40;67.50
53422;DHT22;39319;52.944;5.928;2023-07-20T14:23:22;26.40;67.20
53422;DHT22;39319;52.944;5.928;2023-07-20T14:25:48;26.30;66.70
53422;DHT22;39319;52.944;5.928;2023-07-20T14:28:14;26.20;67.20
53422;DHT22;39319;52.944;5.928;2023-07-20T14:30:41;26.10;67.60
53422;DHT22;39319;52.944;5.928;2023-07-20T14:33:06;26.10;66.90
53422;DHT22;39319;52.944;5.928;2023-07-20T14:35:33;25.90;69.10
53422;DHT22;39319;52.944;5.928;2023-07-20T14:38:00;25.90;67.50
53422;DHT22;39319;52.944;5.928;2023-07-20T14:40:26;25.80;68.00
53422;DHT22;39319;52.944;5.928;2023-07-20T14:42:52;25.80;67.80
53422;DHT22;39319;52.944;5.928;2023-07-20T14:45:18;25.80;68.20
53422;DHT22;39319;52.944;5.928;2023-07-20T14:47:44;25.70;67.50
53422;DHT22;39319;52.944;5.928;2023-07-20T14:50:11;25.50;67.70
53422;DHT22;39319;52.944;5.928;2023-07-20T14:52:37;25.40;67.90
53422;DHT22;39319;52.944;5.928;2023-07-20T14:55:03;25.30;67.70
53422;DHT22;39319;52.944;5.928;2023-07-20T14:57:30;25.10;67.80
53422;DHT22;39319;52.944;5.928;2023-07-20T14:59:55;25.00;69.30
53422;DHT22;39319;52.944;5.928;2023-07-20T15:02:21;25.00;68.80
53422;DHT22;39319;52.944;5.928;2023-07-20T15:04:48;25.00;68.80
53422;DHT22;39319;52.944;5.928;2023-07-20T15:07:21;24.90;68.60
53422;DHT22;39319;52.944;5.928;2023-07-20T15:09:50;24.90;69.10
53422;DHT22;39319;52.944;5.928;2023-07-20T15:12:16;24.70;68.90
53422;DHT22;39319;52.944;5.928;2023-07-20T15:14:42;24.70;72.60
53422;DHT22;39319;52.944;5.928;2023-07-20T15:17:09;24.70;70.50
53422;DHT22;39319;52.944;5.928;2023-07-20T15:19:35;24.70;69.30
53422;DHT22;39319;52.944;5.928;2023-07-20T15:22:02;24.60;68.90
53422;DHT22;39319;52.944;5.928;2023-07-20T15:24:29;24.60;70.00
53422;DHT22;39319;52.944;5.928;2023-07-20T15:26:55;24.50;70.20
53422;DHT22;39319;52.944;5.928;2023-07-20T15:29:20;24.50;70.70
53422;DHT22;39319;52.944;5.928;2023-07-20T15:31:47;24.50;71.80
53422;DHT22;39319;52.944;5.928;2023-07-20T15:34:13;24.50;71.20
53422;DHT22;39319;52.944;5.928;2023-07-20T15:36:43;24.50;71.60
53422;DHT22;39319;52.944;5.928;2023-07-20T15:39:09;24.60;71.10
53422;DHT22;39319;52.944;5.928;2023-07-20T15:41:35;24.60;71.40
53422;DHT22;39319;52.944;5.928;2023-07-20T15:44:01;24.60;70.80
53422;DHT22;39319;52.944;5.928;2023-07-20T15:49:05;24.60;71.60
53422;DHT22;39319;52.944;5.928;2023-07-20T15:51:33;24.50;71.70
53422;DHT22;39319;52.944;5.928;2023-07-20T15:53:59;24.40;71.70